createdAt,value
2024-04-05T00:00:19.836Z,98306.14
2024-04-05T00:03:11.024Z,98306.30
2024-04-05T00:05:43.062Z,98307.48
2024-04-05T00:08:14.145Z,98304.42
2024-04-05T00:10:45.492Z,98307.16
2024-04-05T00:13:16.711Z,98309.23
2024-04-05T00:15:47.722Z,98317.83
2024-04-05T00:18:18.643Z,98319.84
2024-04-05T00:20:48.420Z,98319.09
2024-04-05T00:23:17.997Z,98321.79
2024-04-05T00:25:47.635Z,98322.62
2024-04-05T00:28:18.742Z,98320.36
2024-04-05T00:30:49.695Z,98314.77
2024-04-05T00:33:19.435Z,98314.86
2024-04-05T00:35:54.774Z,98319.41
2024-04-05T00:38:27.338Z,98318.30
2024-04-05T00:40:58.600Z,98316.33
2024-04-05T00:43:31.911Z,98318.36
2024-04-05T00:46:07.694Z,98316.61
2024-04-05T00:48:39.003Z,98316.40
2024-04-05T00:51:11.066Z,98317.17
2024-04-05T00:53:42.290Z,98318.61
2024-04-05T00:56:14.658Z,98317.31
2024-04-05T00:58:45.898Z,98318.61
2024-04-05T01:01:17.196Z,98318.39
2024-04-05T01:03:48.307Z,98317.93
2024-04-05T01:06:20.000Z,98319.01
2024-04-05T01:08:51.466Z,98315.66
2024-04-05T01:11:23.150Z,98316.58
2024-04-05T01:13:54.403Z,98313.59
2024-04-05T01:16:25.720Z,98317.16
2024-04-05T01:18:59.633Z,98311.27
2024-04-05T01:21:30.848Z,98304.56
2024-04-05T01:24:03.310Z,98309.02
2024-04-05T01:26:34.682Z,98309.36
2024-04-05T01:29:05.702Z,98310.06
2024-04-05T01:31:36.870Z,98311.65
2024-04-05T01:34:08.350Z,98311.00
2024-04-05T01:36:40.068Z,98311.58
2024-04-05T01:39:11.287Z,98309.73
2024-04-05T01:41:42.735Z,98305.20
2024-04-05T01:44:14.239Z,98304.11
2024-04-05T01:46:45.474Z,98305.04
2024-04-05T01:49:16.699Z,98305.66
2024-04-05T01:51:47.958Z,98301.09
2024-04-05T01:54:19.032Z,98297.70
2024-04-05T01:56:50.404Z,98301.19
2024-04-05T01:59:21.492Z,98298.84
2024-04-05T02:01:55.943Z,98301.30
2024-04-05T02:04:27.509Z,98298.64
2024-04-05T02:06:59.002Z,98302.81
2024-04-05T02:09:30.271Z,98295.98
2024-04-05T02:12:02.016Z,98291.08
2024-04-05T02:14:35.082Z,98288.39
2024-04-05T02:17:06.714Z,98289.83
2024-04-05T02:19:38.308Z,98288.33
2024-04-05T02:22:09.992Z,98288.54
2024-04-05T02:24:41.246Z,98287.88
2024-04-05T02:27:12.328Z,98292.05
2024-04-05T02:29:43.365Z,98295.88
2024-04-05T02:32:14.722Z,98297.35
2024-04-05T02:34:46.140Z,98295.69
2024-04-05T02:37:17.917Z,98298.30
2024-04-05T02:39:49.473Z,98299.58
2024-04-05T02:42:20.787Z,98302.72
2024-04-05T02:44:52.337Z,98304.33
2024-04-05T02:47:24.296Z,98306.61
2024-04-05T02:49:57.673Z,98306.65
2024-04-05T02:52:28.841Z,98307.73
2024-04-05T02:54:59.825Z,98306.02
2024-04-05T02:57:31.247Z,98311.70
2024-04-05T03:00:02.405Z,98309.52
2024-04-05T03:02:33.972Z,98309.33
2024-04-05T03:05:05.729Z,98311.58
2024-04-05T03:07:37.258Z,98310.41
2024-04-05T03:10:09.855Z,98315.25
2024-04-05T03:12:41.125Z,98317.36
2024-04-05T03:15:12.341Z,98312.75
2024-04-05T03:17:44.546Z,98306.40
2024-04-05T03:20:16.128Z,98303.84
2024-04-05T03:22:47.751Z,98303.49
2024-04-05T03:25:19.238Z,98301.61
2024-04-05T03:27:52.346Z,98301.80
2024-04-05T03:30:23.527Z,98303.52
2024-04-05T03:32:54.951Z,98308.69
2024-04-05T03:35:26.499Z,98313.86
2024-04-05T03:37:58.250Z,98307.20
2024-04-05T03:40:29.926Z,98304.83
2024-04-05T03:43:01.222Z,98303.30
2024-04-05T03:45:32.727Z,98301.07
2024-04-05T03:48:04.249Z,98302.80
2024-04-05T03:50:35.444Z,98308.35
2024-04-05T03:53:07.571Z,98305.98
2024-04-05T03:55:38.784Z,98307.20
2024-04-05T03:58:10.634Z,98306.70
2024-04-05T04:00:41.926Z,98304.66
2024-04-05T04:03:13.317Z,98303.13
2024-04-05T04:05:44.495Z,98305.90
2024-04-05T04:08:16.722Z,98306.61
2024-04-05T04:10:48.950Z,98309.04
2024-04-05T04:13:20.169Z,98316.46
2024-04-05T04:15:51.501Z,98318.55
2024-04-05T04:18:23.012Z,98316.15
2024-04-05T04:20:55.311Z,98312.38
2024-04-05T04:23:28.833Z,98316.34
2024-04-05T04:26:02.094Z,98313.74
2024-04-05T04:28:34.327Z,98315.16
2024-04-05T04:31:21.466Z,98310.69
2024-04-05T04:33:53.480Z,98312.25
2024-04-05T04:36:25.789Z,98316.39
2024-04-05T04:38:57.131Z,98321.04
2024-04-05T04:41:28.600Z,98324.52
2024-04-05T04:44:00.066Z,98331.77
2024-04-05T04:46:31.393Z,98340.23
2024-04-05T04:49:03.004Z,98342.02
2024-04-05T04:51:34.167Z,98341.36
2024-04-05T04:54:05.694Z,98339.18
2024-04-05T04:56:36.852Z,98336.65
2024-04-05T04:59:09.916Z,98341.02
2024-04-05T05:01:41.581Z,98344.20
2024-04-05T05:04:13.171Z,98340.83
2024-04-05T05:06:44.520Z,98339.36
2024-04-05T05:09:16.871Z,98344.23
2024-04-05T05:11:48.868Z,98345.48
2024-04-05T05:14:20.089Z,98340.56
2024-04-05T05:16:51.309Z,98343.01
2024-04-05T05:19:23.723Z,98346.13
2024-04-05T05:21:55.017Z,98351.19
2024-04-05T05:24:26.070Z,98355.01
2024-04-05T05:26:57.229Z,98357.79
2024-04-05T05:29:28.883Z,98362.63
2024-04-05T05:31:59.924Z,98364.88
2024-04-05T05:34:31.088Z,98364.73
2024-04-05T05:37:02.256Z,98360.63
2024-04-05T05:39:34.165Z,98359.13
2024-04-05T05:42:05.816Z,98355.55
2024-04-05T05:44:36.799Z,98353.67
2024-04-05T05:47:08.984Z,98356.95
2024-04-05T05:49:40.509Z,98355.61
2024-04-05T05:52:11.738Z,98357.18
2024-04-05T05:54:43.072Z,98361.86
2024-04-05T05:57:14.262Z,98361.90
2024-04-05T05:59:45.561Z,98355.92
2024-04-05T06:02:17.366Z,98345.80
2024-04-05T06:04:49.010Z,98341.54
2024-04-05T06:07:20.609Z,98340.55
2024-04-05T06:09:54.822Z,98340.27
2024-04-05T06:12:27.409Z,98346.88
2024-04-05T06:15:00.256Z,98346.23
2024-04-05T06:17:35.237Z,98353.17
2024-04-05T06:20:11.221Z,98357.36
2024-04-05T06:22:42.896Z,98363.77
2024-04-05T06:25:15.142Z,98363.64
2024-04-05T06:27:46.861Z,98359.20
2024-04-05T06:30:18.374Z,98359.09
2024-04-05T06:32:49.542Z,98360.17
2024-04-05T06:35:21.109Z,98357.33
2024-04-05T06:37:52.329Z,98353.43
2024-04-05T06:40:24.103Z,98360.91
2024-04-05T06:42:55.513Z,98359.58
2024-04-05T06:45:26.884Z,98356.70
2024-04-05T06:47:58.118Z,98359.80
2024-04-05T06:50:33.746Z,98362.59
2024-04-05T06:53:05.145Z,98357.27
2024-04-05T06:55:36.659Z,98346.98
2024-04-05T06:58:08.146Z,98347.73
2024-04-05T07:00:39.619Z,98351.21
2024-04-05T07:03:11.108Z,98362.29
2024-04-05T07:05:43.036Z,98362.46
2024-04-05T07:08:14.479Z,98363.02
2024-04-05T07:10:50.406Z,98357.93
2024-04-05T07:13:22.183Z,98356.29
2024-04-05T07:15:53.357Z,98360.77
2024-04-05T07:18:25.686Z,98361.58
2024-04-05T07:20:57.134Z,98363.92
2024-04-05T07:23:28.510Z,98363.87
2024-04-05T07:25:59.731Z,98372.06
2024-04-05T07:28:31.148Z,98377.86
2024-04-05T07:31:04.738Z,98387.27
2024-04-05T07:33:36.086Z,98376.49
2024-04-05T07:36:09.057Z,98377.46
2024-04-05T07:38:40.332Z,98380.84
2024-04-05T07:41:11.745Z,98386.85
2024-04-05T07:43:43.366Z,98387.64
2024-04-05T07:46:15.075Z,98400.50
2024-04-05T07:48:46.709Z,98406.61
2024-04-05T07:51:18.652Z,98407.71
2024-04-05T07:53:49.716Z,98406.20
2024-04-05T07:56:20.937Z,98407.28
2024-04-05T07:58:52.241Z,98404.37
2024-04-05T08:01:24.616Z,98393.50
2024-04-05T08:03:55.676Z,98387.63
2024-04-05T08:06:26.766Z,98384.69
2024-04-05T08:08:57.922Z,98385.55
2024-04-05T08:11:29.340Z,98392.45
2024-04-05T08:14:00.288Z,98395.40
2024-04-05T08:16:31.469Z,98386.59
2024-04-05T08:19:03.968Z,98386.30
2024-04-05T08:21:35.310Z,98380.30
2024-04-05T08:24:08.238Z,98376.21
2024-04-05T08:26:39.583Z,98372.83
2024-04-05T08:29:11.332Z,98372.55
2024-04-05T08:31:42.624Z,98364.67
2024-04-05T08:34:14.003Z,98356.98
2024-04-05T08:36:50.737Z,98353.08
2024-04-05T08:39:22.812Z,98349.85
2024-04-05T08:41:57.081Z,98345.07
2024-04-05T08:44:29.525Z,98353.63
2024-04-05T08:47:00.791Z,98367.02
2024-04-05T08:49:36.042Z,98364.69
2024-04-05T08:52:08.094Z,98358.05
2024-04-05T08:54:39.529Z,98347.39
2024-04-05T08:57:11.994Z,98340.34
2024-04-05T08:59:50.430Z,98338.33
2024-04-05T09:02:24.446Z,98338.04
2024-04-05T09:04:55.935Z,98337.58
2024-04-05T09:07:27.709Z,98344.73
2024-04-05T09:09:59.406Z,98340.46
2024-04-05T09:12:34.357Z,98339.83
2024-04-05T09:15:09.420Z,98334.16
2024-04-05T09:17:48.698Z,98322.94
2024-04-05T09:20:25.437Z,98311.68
2024-04-05T09:23:03.608Z,98303.55
2024-04-05T09:25:38.570Z,98300.07
2024-04-05T09:28:14.398Z,98298.69
2024-04-05T09:30:47.458Z,98294.01
2024-04-05T09:33:23.262Z,98291.92
2024-04-05T09:35:57.731Z,98291.23
2024-04-05T09:38:31.090Z,98296.42
2024-04-05T09:41:03.119Z,98298.84
2024-04-05T09:43:52.148Z,98293.09
2024-04-05T09:46:28.664Z,98283.66
2024-04-05T09:49:00.469Z,98290.42
2024-04-05T09:51:45.104Z,98279.80
2024-04-05T09:54:18.357Z,98284.47
2024-04-05T09:56:51.288Z,98286.70
2024-04-05T09:59:26.338Z,98287.20
2024-04-05T10:01:58.976Z,98289.10
2024-04-05T10:04:30.686Z,98284.57
2024-04-05T10:07:10.879Z,98275.85
2024-04-05T10:09:44.153Z,98272.70
2024-04-05T10:12:18.299Z,98269.51
2024-04-05T10:14:58.127Z,98267.40
2024-04-05T10:17:31.089Z,98275.93
2024-04-05T10:20:12.554Z,98283.09
2024-04-05T10:22:45.064Z,98283.98
2024-04-05T10:25:17.102Z,98287.12
2024-04-05T10:27:53.600Z,98277.21
2024-04-05T10:30:25.189Z,98274.79
2024-04-05T10:33:02.362Z,98258.78
2024-04-05T10:35:33.631Z,98255.61
2024-04-05T10:38:19.103Z,98250.89
2024-04-05T10:41:01.711Z,98246.36
2024-04-05T10:43:33.000Z,98233.65
2024-04-05T10:46:04.590Z,98220.59
2024-04-05T10:48:36.194Z,98213.32
2024-04-05T10:51:09.613Z,98209.83
2024-04-05T10:53:41.734Z,98215.05
2024-04-05T10:56:13.100Z,98211.93
2024-04-05T10:58:45.124Z,98202.69
2024-04-05T11:01:18.299Z,98195.04
2024-04-05T11:03:49.556Z,98188.38
2024-04-05T11:06:20.745Z,98178.60
2024-04-05T11:08:56.227Z,98174.54
2024-04-05T11:11:28.276Z,98165.04
2024-04-05T11:14:06.282Z,98161.13
2024-04-05T11:16:38.535Z,98158.40
2024-04-05T11:19:09.444Z,98155.88
2024-04-05T11:21:40.868Z,98150.92
2024-04-05T11:24:20.070Z,98146.53
2024-04-05T11:26:53.739Z,98143.45
2024-04-05T11:29:25.000Z,98138.85
2024-04-05T11:31:59.483Z,98138.48
2024-04-05T11:34:30.623Z,98127.83
2024-04-05T11:37:02.225Z,98118.55
2024-04-05T11:39:33.357Z,98108.39
2024-04-05T11:42:04.814Z,98099.95
2024-04-05T11:44:35.934Z,98085.36
2024-04-05T11:47:07.347Z,98082.62
2024-04-05T11:49:38.462Z,98082.48
2024-04-05T11:52:10.658Z,98086.29
2024-04-05T11:54:41.952Z,98093.42
2024-04-05T11:57:15.647Z,98107.40
2024-04-05T11:59:46.702Z,98109.58
2024-04-05T12:02:17.768Z,98112.27
2024-04-05T12:04:50.109Z,98111.30
2024-04-05T12:07:21.079Z,98115.77
2024-04-05T12:09:52.184Z,98118.83
2024-04-05T12:12:23.553Z,98111.98
2024-04-05T12:14:54.531Z,98103.47
2024-04-05T12:17:25.768Z,98093.91
2024-04-05T12:19:56.725Z,98081.98
2024-04-05T12:22:27.660Z,98071.91
2024-04-05T12:24:58.787Z,98060.45
2024-04-05T12:27:29.888Z,98059.05
2024-04-05T12:30:00.794Z,98057.27
2024-04-05T12:32:31.859Z,98059.69
2024-04-05T12:35:03.350Z,98056.91
2024-04-05T12:37:38.920Z,98060.73
2024-04-05T12:40:18.652Z,98063.31
2024-04-05T12:42:49.550Z,98060.73
2024-04-05T12:45:20.519Z,98070.69
2024-04-05T12:47:52.039Z,98079.82
2024-04-05T12:50:23.015Z,98087.59
2024-04-05T12:52:54.291Z,98089.64
2024-04-05T12:55:25.741Z,98095.67
2024-04-05T12:57:57.048Z,98095.81
2024-04-05T13:00:28.537Z,98110.05
2024-04-05T13:02:59.807Z,98121.88
2024-04-05T13:05:31.203Z,98121.33
2024-04-05T13:08:02.475Z,98114.86
2024-04-05T13:10:33.652Z,98122.50
2024-04-05T13:13:05.830Z,98120.04
2024-04-05T13:15:37.804Z,98088.17
2024-04-05T13:18:09.807Z,98043.26
2024-04-05T13:20:41.139Z,98031.16
2024-04-05T13:23:12.281Z,98027.75
2024-04-05T13:25:44.273Z,98042.08
2024-04-05T13:28:15.883Z,98046.48
2024-04-05T13:30:47.107Z,98049.15
2024-04-05T13:33:18.724Z,98056.54
2024-04-05T13:35:50.436Z,98069.46
2024-04-05T13:38:23.945Z,98070.91
2024-04-05T13:40:55.381Z,98076.89
2024-04-05T13:43:26.558Z,98077.11
2024-04-05T13:46:10.440Z,98091.02
2024-04-05T13:48:44.456Z,98105.48
2024-04-05T13:51:17.487Z,98105.83
2024-04-05T13:53:48.739Z,98094.73
2024-04-05T13:56:21.624Z,98084.47
2024-04-05T13:58:53.672Z,98086.02
2024-04-05T14:01:25.364Z,98091.59
2024-04-05T14:03:56.962Z,98090.02
2024-04-05T14:06:28.043Z,98091.21
2024-04-05T14:08:59.320Z,98084.92
2024-04-05T14:11:30.534Z,98080.02
2024-04-05T14:14:02.664Z,98084.35
2024-04-05T14:16:34.187Z,98082.95
2024-04-05T14:19:06.939Z,98077.20
2024-04-05T14:21:38.918Z,98068.30
2024-04-05T14:24:10.696Z,98074.48
2024-04-05T14:26:42.840Z,98071.66
2024-04-05T14:29:14.089Z,98066.05
2024-04-05T14:31:45.542Z,98063.44
2024-04-05T14:34:17.238Z,98062.02
2024-04-05T14:36:49.631Z,98059.41
2024-04-05T14:39:23.651Z,98070.23
2024-04-05T14:41:55.083Z,98074.25
2024-04-05T14:44:27.321Z,98080.88
2024-04-05T14:46:58.610Z,98078.62
2024-04-05T14:49:30.745Z,98072.54
2024-04-05T14:52:02.492Z,98080.83
2024-04-05T14:54:33.889Z,98075.23
2024-04-05T14:57:06.107Z,98068.76
2024-04-05T14:59:37.410Z,98057.94
2024-04-05T15:02:09.106Z,98051.40
2024-04-05T15:04:40.551Z,98048.35
2024-04-05T15:07:11.568Z,98056.67
2024-04-05T15:09:43.408Z,98063.60
2024-04-05T15:12:15.059Z,98063.95
2024-04-05T15:14:48.089Z,98066.04
2024-04-05T15:17:19.525Z,98062.37
2024-04-05T15:19:50.621Z,98067.70
2024-04-05T15:22:21.655Z,98066.27
2024-04-05T15:24:53.404Z,98060.02
2024-04-05T15:27:24.431Z,98065.55
2024-04-05T15:29:55.407Z,98069.04
2024-04-05T15:32:26.334Z,98070.98
2024-04-05T15:34:57.197Z,98062.15
2024-04-05T15:37:28.140Z,98052.74
2024-04-05T15:39:59.301Z,98045.09
2024-04-05T15:42:31.809Z,98053.44
2024-04-05T15:45:03.257Z,98058.48
2024-04-05T15:47:34.286Z,98055.13
2024-04-05T15:50:05.984Z,98048.66
2024-04-05T15:52:36.997Z,98041.52
2024-04-05T15:55:08.503Z,98037.86
2024-04-05T15:57:39.644Z,98033.83
2024-04-05T16:00:13.741Z,98023.67
2024-04-05T16:02:44.965Z,98021.20
2024-04-05T16:05:18.220Z,98023.32
2024-04-05T16:07:49.590Z,98031.88
2024-04-05T16:10:20.647Z,98037.48
2024-04-05T16:12:51.999Z,98032.47
2024-04-05T16:15:23.381Z,98037.23
2024-04-05T16:17:55.524Z,98045.95
2024-04-05T16:20:29.162Z,98039.55
2024-04-05T16:23:00.354Z,98042.54
2024-04-05T16:25:32.023Z,98046.57
2024-04-05T16:28:05.974Z,98049.00
2024-04-05T16:30:40.792Z,98044.34
2024-04-05T16:33:12.604Z,98048.20
2024-04-05T16:35:43.765Z,98055.04
2024-04-05T16:38:14.893Z,98062.20
2024-04-05T16:40:49.721Z,98068.33
2024-04-05T16:43:20.630Z,98059.31
2024-04-05T16:45:51.644Z,98051.85
2024-04-05T16:48:23.216Z,98060.94
2024-04-05T16:50:54.361Z,98071.91
2024-04-05T16:53:25.234Z,98074.89
2024-04-05T16:55:56.377Z,98068.49
2024-04-05T16:58:28.177Z,98058.98
2024-04-05T17:00:59.296Z,98063.86
2024-04-05T17:03:30.578Z,98073.43
2024-04-05T17:06:10.016Z,98070.70
2024-04-05T17:08:41.896Z,98075.94
2024-04-05T17:11:14.773Z,98077.36
2024-04-05T17:13:49.345Z,98077.73
2024-04-05T17:16:20.702Z,98078.81
2024-04-05T17:18:52.004Z,98080.92
2024-04-05T17:21:23.259Z,98084.27
2024-04-05T17:23:54.616Z,98092.30
2024-04-05T17:26:26.658Z,98093.04
2024-04-05T17:28:57.995Z,98107.81
2024-04-05T17:31:29.825Z,98113.20
2024-04-05T17:34:01.390Z,98112.37
2024-04-05T17:36:33.072Z,98114.64
2024-04-05T17:39:04.549Z,98114.84
2024-04-05T17:41:36.020Z,98121.63
2024-04-05T17:44:08.517Z,98124.60
2024-04-05T17:46:40.322Z,98130.02
2024-04-05T17:49:11.788Z,98133.67
2024-04-05T17:51:43.021Z,98129.19
2024-04-05T17:54:13.998Z,98138.77
2024-04-05T17:56:45.073Z,98147.83
2024-04-05T17:59:16.490Z,98154.80
2024-04-05T18:01:49.998Z,98163.48
2024-04-05T18:04:24.712Z,98163.67
2024-04-05T18:06:55.886Z,98164.73
2024-04-05T18:09:27.522Z,98163.88
2024-04-05T18:11:59.983Z,98167.90
2024-04-05T18:14:31.924Z,98178.86
2024-04-05T18:17:03.349Z,98179.58
2024-04-05T18:19:34.924Z,98185.49
2024-04-05T18:22:06.765Z,98193.48
2024-04-05T18:24:37.993Z,98199.59
2024-04-05T18:27:09.545Z,98204.46
2024-04-05T18:29:41.977Z,98203.44
2024-04-05T18:32:14.428Z,98212.83
2024-04-05T18:34:49.388Z,98219.10
2024-04-05T18:37:20.561Z,98217.20
2024-04-05T18:39:51.704Z,98222.77
2024-04-05T18:42:25.774Z,98225.74
2024-04-05T18:44:57.346Z,98228.88
2024-04-05T18:47:28.430Z,98235.99
2024-04-05T18:49:59.335Z,98241.39
2024-04-05T18:52:30.376Z,98245.73
2024-04-05T18:55:01.707Z,98248.52
2024-04-05T18:57:34.026Z,98254.23
2024-04-05T19:00:14.551Z,98254.42
2024-04-05T19:02:45.819Z,98261.55
2024-04-05T19:05:18.457Z,98270.39
2024-04-05T19:07:49.863Z,98271.43
2024-04-05T19:10:21.913Z,98276.29
2024-04-05T19:12:53.333Z,98275.60
2024-04-05T19:15:26.036Z,98280.98
2024-04-05T19:18:00.500Z,98278.04
2024-04-05T19:20:31.839Z,98277.35
2024-04-05T19:23:03.034Z,98277.18
2024-04-05T19:25:34.754Z,98281.87
2024-04-05T19:28:06.869Z,98282.91
2024-04-05T19:30:41.396Z,98281.00
2024-04-05T19:33:16.655Z,98287.94
2024-04-05T19:35:47.960Z,98296.79
2024-04-05T19:38:20.283Z,98302.86
2024-04-05T19:40:52.007Z,98304.94
2024-04-05T19:43:25.797Z,98309.98
2024-04-05T19:45:56.986Z,98315.17
2024-04-05T19:48:28.538Z,98315.86
2024-04-05T19:50:59.898Z,98318.44
2024-04-05T19:53:31.147Z,98315.65
2024-04-05T19:56:03.973Z,98318.27
2024-04-05T19:58:35.829Z,98319.82
2024-04-05T20:01:07.427Z,98316.36
2024-04-05T20:03:39.910Z,98305.96
2024-04-05T20:06:11.205Z,98309.78
2024-04-05T20:08:42.404Z,98312.19
2024-04-05T20:11:15.379Z,98313.58
2024-04-05T20:13:46.523Z,98315.13
2024-04-05T20:16:18.099Z,98324.32
2024-04-05T20:18:49.434Z,98328.66
2024-04-05T20:21:20.619Z,98334.38
2024-04-05T20:24:08.819Z,98335.42
2024-04-05T20:26:43.613Z,98337.84
2024-04-05T20:29:29.106Z,98344.95
2024-04-05T20:32:22.954Z,98352.75
2024-04-05T20:34:55.323Z,98356.74
2024-04-05T20:37:26.703Z,98361.41
2024-04-05T20:39:58.455Z,98357.08
2024-04-05T20:42:29.760Z,98361.59
2024-04-05T20:45:01.367Z,98369.90
2024-04-05T20:47:36.817Z,98370.07
2024-04-05T20:50:11.010Z,98368.52
2024-04-05T20:52:43.207Z,98364.88
2024-04-05T20:55:15.953Z,98367.98
2024-04-05T20:57:47.521Z,98370.40
2024-04-05T21:00:19.817Z,98369.38
2024-04-05T21:02:54.218Z,98370.92
2024-04-05T21:05:25.674Z,98365.21
2024-04-05T21:07:56.980Z,98363.30
2024-04-05T21:10:28.821Z,98369.37
2024-04-05T21:13:00.178Z,98370.25
2024-04-05T21:15:31.900Z,98372.14
2024-04-05T21:18:03.197Z,98372.14
2024-04-05T21:20:34.632Z,98376.64
2024-04-05T21:23:06.998Z,98378.73
2024-04-05T21:25:39.136Z,98381.85
2024-04-05T21:28:11.336Z,98381.50
2024-04-05T21:30:43.948Z,98384.45
2024-04-05T21:33:17.072Z,98386.18
2024-04-05T21:35:49.974Z,98383.58
2024-04-05T21:38:22.367Z,98388.08
2024-04-05T21:40:54.576Z,98386.69
2024-04-05T21:43:26.957Z,98388.77
2024-04-05T21:45:58.496Z,98385.30
2024-04-05T21:48:29.606Z,98383.75
2024-04-05T21:53:38.050Z,98384.11
2024-04-05T21:56:09.440Z,98379.25
2024-04-05T21:58:40.515Z,98376.98
2024-04-05T22:01:12.234Z,98377.35
2024-04-05T22:03:43.489Z,98378.73
2024-04-05T22:06:14.779Z,98379.95
2024-04-05T22:08:46.048Z,98384.29
2024-04-05T22:11:17.466Z,98385.52
2024-04-05T22:13:48.586Z,98390.19
2024-04-05T22:16:21.438Z,98395.21
2024-04-05T22:18:53.579Z,98386.54
2024-04-05T22:21:25.311Z,98394.16
2024-04-05T22:23:57.697Z,98396.25
2024-04-05T22:26:28.730Z,98397.27
2024-04-05T22:28:59.779Z,98401.27
2024-04-05T22:31:31.416Z,98404.90
2024-04-05T22:34:02.984Z,98406.27
2024-04-05T22:36:35.047Z,98400.38
2024-04-05T22:39:08.795Z,98401.77
2024-04-05T22:41:41.551Z,98403.67
2024-04-05T22:44:12.570Z,98403.14
2024-04-05T22:46:46.514Z,98404.00
2024-04-05T22:49:19.391Z,98408.86
2024-04-05T22:51:50.674Z,98416.47
2024-04-05T22:54:22.816Z,98415.77
2024-04-05T22:56:54.077Z,98418.89
2024-04-05T22:59:25.708Z,98420.10
2024-04-05T23:01:57.166Z,98421.83
2024-04-05T23:04:28.681Z,98424.77
2024-04-05T23:07:00.194Z,98419.40
2024-04-05T23:09:31.398Z,98424.95
2024-04-05T23:12:02.739Z,98423.21
2024-04-05T23:14:34.204Z,98425.46
2024-04-05T23:17:05.880Z,98422.34
2024-04-05T23:19:37.705Z,98423.04
2024-04-05T23:22:09.508Z,98422.34
2024-04-05T23:24:40.642Z,98426.67
2024-04-05T23:27:12.025Z,98425.47
2024-04-05T23:29:45.513Z,98429.28
2024-04-05T23:32:18.183Z,98432.05
2024-04-05T23:34:49.281Z,98433.44
2024-04-05T23:37:20.729Z,98435.86
2024-04-05T23:39:52.198Z,98437.75
2024-04-05T23:42:23.421Z,98435.48
2024-04-05T23:44:54.820Z,98434.81
2024-04-05T23:47:26.245Z,98432.38
2024-04-05T23:49:57.937Z,98432.20
2024-04-05T23:52:29.410Z,98433.42
2024-04-05T23:55:00.498Z,98435.15
2024-04-05T23:57:31.963Z,98434.46
